sensor_id;sensor_type;location;lat;lon;timestamp;P1;durP1;ratioP1;P2;durP2;ratioP2
18720;SDS011;9489;50.948;3.114;2023-11-19T00:00:28;22.20;;;5.25;;
18720;SDS011;9489;50.948;3.114;2023-11-19T00:02:54;19.83;;;4.40;;
18720;SDS011;9489;50.948;3.114;2023-11-19T00:05:20;25.23;;;5.53;;
18720;SDS011;9489;50.948;3.114;2023-11-19T00:07:45;23.92;;;5.47;;
18720;SDS011;9489;50.948;3.114;2023-11-19T00:10:13;26.17;;;5.82;;
18720;SDS011;9489;50.948;3.114;2023-11-19T00:12:44;19.65;;;4.45;;
18720;SDS011;9489;50.948;3.114;2023-11-19T00:15:11;24.77;;;5.93;;
18720;SDS011;9489;50.948;3.114;2023-11-19T00:17:40;21.95;;;5.82;;
18720;SDS011;9489;50.948;3.114;2023-11-19T00:20:13;20.38;;;5.57;;
18720;SDS011;9489;50.948;3.114;2023-11-19T00:22:42;28.27;;;6.28;;
18720;SDS011;9489;50.948;3.114;2023-11-19T00:25:08;26.33;;;6.30;;
18720;SDS011;9489;50.948;3.114;2023-11-19T00:27:34;27.70;;;5.53;;
18720;SDS011;9489;50.948;3.114;2023-11-19T00:30:04;31.80;;;6.65;;
18720;SDS011;9489;50.948;3.114;2023-11-19T00:32:31;26.67;;;6.28;;
18720;SDS011;9489;50.948;3.114;2023-11-19T00:35:00;30.58;;;7.43;;
18720;SDS011;9489;50.948;3.114;2023-11-19T00:37:25;30.95;;;6.88;;
18720;SDS011;9489;50.948;3.114;2023-11-19T00:39:51;25.30;;;5.90;;
18720;SDS011;9489;50.948;3.114;2023-11-19T00:42:17;23.67;;;5.80;;
18720;SDS011;9489;50.948;3.114;2023-11-19T00:44:43;27.95;;;6.18;;
18720;SDS011;9489;50.948;3.114;2023-11-19T00:47:08;24.85;;;6.40;;
18720;SDS011;9489;50.948;3.114;2023-11-19T00:49:34;29.17;;;7.05;;
18720;SDS011;9489;50.948;3.114;2023-11-19T00:52:00;27.17;;;6.20;;
18720;SDS011;9489;50.948;3.114;2023-11-19T00:54:27;24.85;;;6.07;;
18720;SDS011;9489;50.948;3.114;2023-11-19T00:56:53;26.55;;;7.65;;
18720;SDS011;9489;50.948;3.114;2023-11-19T00:59:18;28.05;;;6.68;;
18720;SDS011;9489;50.948;3.114;2023-11-19T01:01:44;24.73;;;6.43;;
18720;SDS011;9489;50.948;3.114;2023-11-19T01:04:10;31.05;;;6.20;;
18720;SDS011;9489;50.948;3.114;2023-11-19T01:06:36;29.75;;;7.10;;
18720;SDS011;9489;50.948;3.114;2023-11-19T01:09:01;31.40;;;6.28;;
18720;SDS011;9489;50.948;3.114;2023-11-19T01:11:27;34.83;;;6.60;;
18720;SDS011;9489;50.948;3.114;2023-11-19T01:13:53;21.77;;;6.28;;
18720;SDS011;9489;50.948;3.114;2023-11-19T01:16:19;32.33;;;6.90;;
18720;SDS011;9489;50.948;3.114;2023-11-19T01:18:48;30.77;;;6.72;;
18720;SDS011;9489;50.948;3.114;2023-11-19T01:21:14;26.02;;;6.03;;
18720;SDS011;9489;50.948;3.114;2023-11-19T01:23:41;25.75;;;5.90;;
18720;SDS011;9489;50.948;3.114;2023-11-19T01:26:10;26.63;;;5.97;;
18720;SDS011;9489;50.948;3.114;2023-11-19T01:28:39;33.47;;;6.63;;
18720;SDS011;9489;50.948;3.114;2023-11-19T01:31:08;33.00;;;6.55;;
18720;SDS011;9489;50.948;3.114;2023-11-19T01:33:35;32.10;;;7.10;;
18720;SDS011;9489;50.948;3.114;2023-11-19T01:36:01;29.08;;;7.22;;
18720;SDS011;9489;50.948;3.114;2023-11-19T01:38:27;33.67;;;6.60;;
18720;SDS011;9489;50.948;3.114;2023-11-19T01:40:55;29.65;;;6.35;;
18720;SDS011;9489;50.948;3.114;2023-11-19T01:46:01;26.23;;;6.40;;
18720;SDS011;9489;50.948;3.114;2023-11-19T01:48:31;30.27;;;6.72;;
18720;SDS011;9489;50.948;3.114;2023-11-19T01:51:01;32.28;;;7.13;;
18720;SDS011;9489;50.948;3.114;2023-11-19T01:53:29;33.97;;;7.72;;
18720;SDS011;9489;50.948;3.114;2023-11-19T01:55:55;29.65;;;7.25;;
18720;SDS011;9489;50.948;3.114;2023-11-19T01:58:22;26.63;;;6.32;;
18720;SDS011;9489;50.948;3.114;2023-11-19T02:00:49;28.40;;;6.35;;
18720;SDS011;9489;50.948;3.114;2023-11-19T02:03:15;27.63;;;7.53;;
18720;SDS011;9489;50.948;3.114;2023-11-19T02:05:42;29.75;;;8.43;;
18720;SDS011;9489;50.948;3.114;2023-11-19T02:08:07;30.65;;;6.75;;
18720;SDS011;9489;50.948;3.114;2023-11-19T02:10:34;35.47;;;7.45;;
18720;SDS011;9489;50.948;3.114;2023-11-19T02:13:00;32.08;;;7.93;;
18720;SDS011;9489;50.948;3.114;2023-11-19T02:15:27;39.92;;;7.15;;
18720;SDS011;9489;50.948;3.114;2023-11-19T02:17:53;35.83;;;7.30;;
18720;SDS011;9489;50.948;3.114;2023-11-19T02:20:18;38.42;;;7.15;;
18720;SDS011;9489;50.948;3.114;2023-11-19T02:22:45;32.45;;;7.28;;
18720;SDS011;9489;50.948;3.114;2023-11-19T02:25:15;38.70;;;8.18;;
18720;SDS011;9489;50.948;3.114;2023-11-19T02:27:58;29.50;;;6.40;;
18720;SDS011;9489;50.948;3.114;2023-11-19T02:30:25;34.03;;;6.55;;
18720;SDS011;9489;50.948;3.114;2023-11-19T02:32:58;40.65;;;7.35;;
18720;SDS011;9489;50.948;3.114;2023-11-19T02:35:26;33.45;;;7.70;;
18720;SDS011;9489;50.948;3.114;2023-11-19T02:37:53;31.63;;;7.88;;
18720;SDS011;9489;50.948;3.114;2023-11-19T02:40:19;31.60;;;6.57;;
18720;SDS011;9489;50.948;3.114;2023-11-19T02:42:49;26.58;;;6.03;;
18720;SDS011;9489;50.948;3.114;2023-11-19T02:45:15;27.17;;;6.28;;
18720;SDS011;9489;50.948;3.114;2023-11-19T02:47:40;31.35;;;6.88;;
18720;SDS011;9489;50.948;3.114;2023-11-19T02:50:12;26.33;;;6.95;;
18720;SDS011;9489;50.948;3.114;2023-11-19T02:52:41;35.58;;;7.40;;
18720;SDS011;9489;50.948;3.114;2023-11-19T02:55:07;37.35;;;8.38;;
18720;SDS011;9489;50.948;3.114;2023-11-19T02:57:40;26.30;;;6.63;;
18720;SDS011;9489;50.948;3.114;2023-11-19T03:00:16;26.60;;;6.45;;
18720;SDS011;9489;50.948;3.114;2023-11-19T03:02:49;33.90;;;7.20;;
18720;SDS011;9489;50.948;3.114;2023-11-19T03:05:24;28.38;;;6.93;;
18720;SDS011;9489;50.948;3.114;2023-11-19T03:07:50;33.15;;;7.10;;
18720;SDS011;9489;50.948;3.114;2023-11-19T03:10:16;35.30;;;7.65;;
18720;SDS011;9489;50.948;3.114;2023-11-19T03:12:42;36.80;;;7.25;;
18720;SDS011;9489;50.948;3.114;2023-11-19T03:15:10;30.23;;;7.38;;
18720;SDS011;9489;50.948;3.114;2023-11-19T03:17:39;31.40;;;7.60;;
18720;SDS011;9489;50.948;3.114;2023-11-19T03:20:07;32.70;;;7.18;;
18720;SDS011;9489;50.948;3.114;2023-11-19T03:22:40;32.95;;;7.00;;
18720;SDS011;9489;50.948;3.114;2023-11-19T03:25:09;34.83;;;6.75;;
18720;SDS011;9489;50.948;3.114;2023-11-19T03:27:35;32.30;;;6.97;;
18720;SDS011;9489;50.948;3.114;2023-11-19T03:30:02;35.90;;;7.05;;
18720;SDS011;9489;50.948;3.114;2023-11-19T03:32:30;22.73;;;5.88;;
18720;SDS011;9489;50.948;3.114;2023-11-19T03:34:57;32.25;;;6.22;;
18720;SDS011;9489;50.948;3.114;2023-11-19T03:37:24;23.23;;;6.55;;
18720;SDS011;9489;50.948;3.114;2023-11-19T03:39:51;39.08;;;7.95;;
18720;SDS011;9489;50.948;3.114;2023-11-19T03:42:18;30.52;;;6.22;;
18720;SDS011;9489;50.948;3.114;2023-11-19T03:44:45;34.88;;;6.88;;
18720;SDS011;9489;50.948;3.114;2023-11-19T03:47:11;26.77;;;6.72;;
18720;SDS011;9489;50.948;3.114;2023-11-19T03:49:37;30.73;;;6.90;;
18720;SDS011;9489;50.948;3.114;2023-11-19T03:52:02;39.80;;;7.75;;
18720;SDS011;9489;50.948;3.114;2023-11-19T03:54:28;34.33;;;6.38;;
18720;SDS011;9489;50.948;3.114;2023-11-19T03:56:54;26.92;;;6.97;;
18720;SDS011;9489;50.948;3.114;2023-11-19T03:59:19;33.10;;;6.88;;
18720;SDS011;9489;50.948;3.114;2023-11-19T04:01:45;27.88;;;6.45;;
18720;SDS011;9489;50.948;3.114;2023-11-19T04:04:11;32.40;;;7.53;;
18720;SDS011;9489;50.948;3.114;2023-11-19T04:06:37;26.88;;;7.10;;
18720;SDS011;9489;50.948;3.114;2023-11-19T04:09:03;29.20;;;6.82;;
18720;SDS011;9489;50.948;3.114;2023-11-19T04:11:28;35.83;;;7.68;;
18720;SDS011;9489;50.948;3.114;2023-11-19T04:13:54;35.03;;;7.85;;
18720;SDS011;9489;50.948;3.114;2023-11-19T04:16:25;31.60;;;6.93;;
18720;SDS011;9489;50.948;3.114;2023-11-19T04:18:53;36.17;;;7.30;;
18720;SDS011;9489;50.948;3.114;2023-11-19T04:21:18;33.67;;;7.00;;
18720;SDS011;9489;50.948;3.114;2023-11-19T04:23:44;29.42;;;6.90;;
18720;SDS011;9489;50.948;3.114;2023-11-19T04:26:09;32.85;;;6.82;;
18720;SDS011;9489;50.948;3.114;2023-11-19T04:28:35;33.40;;;7.00;;
18720;SDS011;9489;50.948;3.114;2023-11-19T04:31:01;36.03;;;7.22;;
18720;SDS011;9489;50.948;3.114;2023-11-19T04:33:28;30.95;;;6.88;;
18720;SDS011;9489;50.948;3.114;2023-11-19T04:35:54;32.20;;;6.95;;
18720;SDS011;9489;50.948;3.114;2023-11-19T04:38:19;28.58;;;7.00;;
18720;SDS011;9489;50.948;3.114;2023-11-19T04:40:45;32.33;;;7.35;;
18720;SDS011;9489;50.948;3.114;2023-11-19T04:43:10;34.72;;;7.90;;
18720;SDS011;9489;50.948;3.114;2023-11-19T04:45:36;33.85;;;6.80;;
18720;SDS011;9489;50.948;3.114;2023-11-19T04:48:02;31.98;;;7.50;;
18720;SDS011;9489;50.948;3.114;2023-11-19T04:50:27;31.20;;;7.00;;
18720;SDS011;9489;50.948;3.114;2023-11-19T04:52:53;30.95;;;6.35;;
18720;SDS011;9489;50.948;3.114;2023-11-19T04:55:20;32.88;;;6.95;;
18720;SDS011;9489;50.948;3.114;2023-11-19T04:57:46;30.55;;;7.18;;
18720;SDS011;9489;50.948;3.114;2023-11-19T05:00:12;31.80;;;7.55;;
18720;SDS011;9489;50.948;3.114;2023-11-19T05:02:38;26.23;;;6.70;;
18720;SDS011;9489;50.948;3.114;2023-11-19T05:05:04;32.15;;;6.53;;
18720;SDS011;9489;50.948;3.114;2023-11-19T05:07:30;36.00;;;7.25;;
18720;SDS011;9489;50.948;3.114;2023-11-19T05:09:56;32.80;;;7.55;;
18720;SDS011;9489;50.948;3.114;2023-11-19T05:12:22;33.50;;;6.55;;
18720;SDS011;9489;50.948;3.114;2023-11-19T05:14:48;33.67;;;6.93;;
18720;SDS011;9489;50.948;3.114;2023-11-19T05:17:18;29.83;;;5.57;;
18720;SDS011;9489;50.948;3.114;2023-11-19T05:19:44;27.98;;;6.93;;
18720;SDS011;9489;50.948;3.114;2023-11-19T05:22:10;29.25;;;7.00;;
18720;SDS011;9489;50.948;3.114;2023-11-19T05:24:36;29.70;;;6.00;;
18720;SDS011;9489;50.948;3.114;2023-11-19T05:27:02;26.95;;;6.65;;
18720;SDS011;9489;50.948;3.114;2023-11-19T05:29:27;27.63;;;6.35;;
18720;SDS011;9489;50.948;3.114;2023-11-19T05:31:54;33.88;;;7.65;;
18720;SDS011;9489;50.948;3.114;2023-11-19T05:34:20;35.30;;;6.63;;
18720;SDS011;9489;50.948;3.114;2023-11-19T05:36:46;30.55;;;7.18;;
18720;SDS011;9489;50.948;3.114;2023-11-19T05:39:12;31.92;;;6.10;;
18720;SDS011;9489;50.948;3.114;2023-11-19T05:41:38;28.40;;;6.38;;
18720;SDS011;9489;50.948;3.114;2023-11-19T05:44:04;36.55;;;6.68;;
18720;SDS011;9489;50.948;3.114;2023-11-19T05:46:29;33.17;;;7.43;;
18720;SDS011;9489;50.948;3.114;2023-11-19T05:48:55;30.75;;;6.22;;
18720;SDS011;9489;50.948;3.114;2023-11-19T05:51:20;27.92;;;6.63;;
18720;SDS011;9489;50.948;3.114;2023-11-19T05:53:46;32.65;;;8.15;;
18720;SDS011;9489;50.948;3.114;2023-11-19T05:56:12;33.28;;;6.82;;
18720;SDS011;9489;50.948;3.114;2023-11-19T05:58:38;38.95;;;7.43;;
18720;SDS011;9489;50.948;3.114;2023-11-19T06:01:05;37.42;;;6.35;;
18720;SDS011;9489;50.948;3.114;2023-11-19T06:03:32;33.78;;;8.20;;
18720;SDS011;9489;50.948;3.114;2023-11-19T06:05:58;30.05;;;7.20;;
18720;SDS011;9489;50.948;3.114;2023-11-19T06:08:23;31.50;;;6.43;;
18720;SDS011;9489;50.948;3.114;2023-11-19T06:10:52;31.95;;;7.75;;
18720;SDS011;9489;50.948;3.114;2023-11-19T06:13:18;30.13;;;7.60;;
18720;SDS011;9489;50.948;3.114;2023-11-19T06:15:44;32.38;;;7.70;;
18720;SDS011;9489;50.948;3.114;2023-11-19T06:18:10;30.40;;;7.28;;
18720;SDS011;9489;50.948;3.114;2023-11-19T06:20:36;31.10;;;7.82;;
18720;SDS011;9489;50.948;3.114;2023-11-19T06:23:02;28.65;;;6.72;;
18720;SDS011;9489;50.948;3.114;2023-11-19T06:25:28;27.77;;;6.70;;
18720;SDS011;9489;50.948;3.114;2023-11-19T06:27:53;28.52;;;6.22;;
18720;SDS011;9489;50.948;3.114;2023-11-19T06:30:19;31.30;;;5.85;;
18720;SDS011;9489;50.948;3.114;2023-11-19T06:32:45;30.20;;;6.97;;
18720;SDS011;9489;50.948;3.114;2023-11-19T06:35:11;30.73;;;6.35;;
18720;SDS011;9489;50.948;3.114;2023-11-19T06:37:39;33.10;;;7.13;;
18720;SDS011;9489;50.948;3.114;2023-11-19T06:40:05;32.33;;;7.20;;
18720;SDS011;9489;50.948;3.114;2023-11-19T06:42:32;35.33;;;7.97;;
18720;SDS011;9489;50.948;3.114;2023-11-19T06:44:58;34.20;;;6.97;;
18720;SDS011;9489;50.948;3.114;2023-11-19T06:47:27;38.53;;;8.48;;
18720;SDS011;9489;50.948;3.114;2023-11-19T06:49:53;39.63;;;15.75;;
18720;SDS011;9489;50.948;3.114;2023-11-19T06:52:19;68.88;;;39.13;;
18720;SDS011;9489;50.948;3.114;2023-11-19T06:54:45;50.83;;;22.95;;
18720;SDS011;9489;50.948;3.114;2023-11-19T06:57:11;50.78;;;25.33;;
18720;SDS011;9489;50.948;3.114;2023-11-19T06:59:37;39.58;;;12.60;;
18720;SDS011;9489;50.948;3.114;2023-11-19T07:02:03;36.05;;;9.20;;
18720;SDS011;9489;50.948;3.114;2023-11-19T07:04:30;36.10;;;8.32;;
18720;SDS011;9489;50.948;3.114;2023-11-19T07:06:56;39.65;;;9.32;;
18720;SDS011;9489;50.948;3.114;2023-11-19T07:09:21;36.92;;;7.40;;
18720;SDS011;9489;50.948;3.114;2023-11-19T07:11:48;37.88;;;7.93;;
18720;SDS011;9489;50.948;3.114;2023-11-19T07:14:16;38.00;;;7.38;;
18720;SDS011;9489;50.948;3.114;2023-11-19T07:16:43;37.22;;;7.90;;
18720;SDS011;9489;50.948;3.114;2023-11-19T07:19:09;40.40;;;8.63;;
18720;SDS011;9489;50.948;3.114;2023-11-19T07:21:35;37.50;;;7.97;;
18720;SDS011;9489;50.948;3.114;2023-11-19T07:24:04;35.70;;;7.18;;
18720;SDS011;9489;50.948;3.114;2023-11-19T07:26:30;34.67;;;7.40;;
18720;SDS011;9489;50.948;3.114;2023-11-19T07:28:56;37.33;;;8.63;;
18720;SDS011;9489;50.948;3.114;2023-11-19T07:31:23;31.73;;;8.95;;
18720;SDS011;9489;50.948;3.114;2023-11-19T07:33:49;33.55;;;8.38;;
18720;SDS011;9489;50.948;3.114;2023-11-19T07:36:15;33.13;;;7.07;;
18720;SDS011;9489;50.948;3.114;2023-11-19T07:38:41;39.10;;;8.27;;
18720;SDS011;9489;50.948;3.114;2023-11-19T07:41:07;35.60;;;7.63;;
18720;SDS011;9489;50.948;3.114;2023-11-19T07:43:43;30.52;;;7.57;;
18720;SDS011;9489;50.948;3.114;2023-11-19T07:46:12;37.30;;;8.15;;
18720;SDS011;9489;50.948;3.114;2023-11-19T07:48:39;34.30;;;8.27;;
18720;SDS011;9489;50.948;3.114;2023-11-19T07:51:05;36.20;;;8.57;;
18720;SDS011;9489;50.948;3.114;2023-11-19T07:53:31;38.42;;;8.10;;
18720;SDS011;9489;50.948;3.114;2023-11-19T07:55:58;41.28;;;7.60;;
18720;SDS011;9489;50.948;3.114;2023-11-19T07:58:24;42.33;;;10.13;;
18720;SDS011;9489;50.948;3.114;2023-11-19T08:00:51;36.92;;;9.20;;
18720;SDS011;9489;50.948;3.114;2023-11-19T08:03:17;32.05;;;8.85;;
18720;SDS011;9489;50.948;3.114;2023-11-19T08:05:44;40.00;;;8.93;;
18720;SDS011;9489;50.948;3.114;2023-11-19T08:08:11;38.08;;;8.88;;
18720;SDS011;9489;50.948;3.114;2023-11-19T08:10:36;31.60;;;8.50;;
18720;SDS011;9489;50.948;3.114;2023-11-19T08:13:02;27.70;;;7.53;;
18720;SDS011;9489;50.948;3.114;2023-11-19T08:15:28;34.47;;;8.63;;
18720;SDS011;9489;50.948;3.114;2023-11-19T08:17:54;27.48;;;7.32;;
18720;SDS011;9489;50.948;3.114;2023-11-19T08:20:19;38.42;;;11.60;;
18720;SDS011;9489;50.948;3.114;2023-11-19T08:22:45;33.63;;;12.00;;
18720;SDS011;9489;50.948;3.114;2023-11-19T08:25:10;34.10;;;10.93;;
18720;SDS011;9489;50.948;3.114;2023-11-19T08:27:36;38.92;;;10.32;;
18720;SDS011;9489;50.948;3.114;2023-11-19T08:30:02;38.28;;;9.00;;
18720;SDS011;9489;50.948;3.114;2023-11-19T08:32:28;32.33;;;8.90;;
18720;SDS011;9489;50.948;3.114;2023-11-19T08:34:53;33.88;;;12.10;;
18720;SDS011;9489;50.948;3.114;2023-11-19T08:37:19;33.25;;;9.35;;
18720;SDS011;9489;50.948;3.114;2023-11-19T08:39:47;34.45;;;10.98;;
18720;SDS011;9489;50.948;3.114;2023-11-19T08:42:13;30.67;;;8.73;;
18720;SDS011;9489;50.948;3.114;2023-11-19T08:44:39;27.95;;;8.63;;
18720;SDS011;9489;50.948;3.114;2023-11-19T08:47:05;31.35;;;7.43;;
18720;SDS011;9489;50.948;3.114;2023-11-19T08:49:31;31.30;;;7.55;;
18720;SDS011;9489;50.948;3.114;2023-11-19T08:51:56;29.02;;;7.82;;
18720;SDS011;9489;50.948;3.114;2023-11-19T08:54:22;28.40;;;8.82;;
18720;SDS011;9489;50.948;3.114;2023-11-19T08:56:48;34.83;;;8.50;;
18720;SDS011;9489;50.948;3.114;2023-11-19T08:59:13;30.00;;;8.43;;
18720;SDS011;9489;50.948;3.114;2023-11-19T09:01:40;36.80;;;8.48;;
18720;SDS011;9489;50.948;3.114;2023-11-19T09:04:06;26.58;;;8.20;;
18720;SDS011;9489;50.948;3.114;2023-11-19T09:06:31;33.13;;;9.65;;
18720;SDS011;9489;50.948;3.114;2023-11-19T09:08:57;23.85;;;7.15;;
18720;SDS011;9489;50.948;3.114;2023-11-19T09:11:27;26.27;;;6.72;;
18720;SDS011;9489;50.948;3.114;2023-11-19T09:13:52;31.40;;;7.30;;
18720;SDS011;9489;50.948;3.114;2023-11-19T09:16:19;24.60;;;5.90;;
18720;SDS011;9489;50.948;3.114;2023-11-19T09:18:45;29.40;;;6.65;;
18720;SDS011;9489;50.948;3.114;2023-11-19T09:21:11;35.08;;;10.57;;
18720;SDS011;9489;50.948;3.114;2023-11-19T09:23:37;32.92;;;7.57;;
18720;SDS011;9489;50.948;3.114;2023-11-19T09:26:13;30.23;;;8.55;;
18720;SDS011;9489;50.948;3.114;2023-11-19T09:28:39;34.38;;;8.23;;
18720;SDS011;9489;50.948;3.114;2023-11-19T09:31:16;26.52;;;7.65;;
18720;SDS011;9489;50.948;3.114;2023-11-19T09:33:43;28.85;;;7.82;;
18720;SDS011;9489;50.948;3.114;2023-11-19T09:36:09;32.00;;;7.63;;
18720;SDS011;9489;50.948;3.114;2023-11-19T09:38:38;23.20;;;7.15;;
18720;SDS011;9489;50.948;3.114;2023-11-19T09:41:05;24.10;;;7.70;;
18720;SDS011;9489;50.948;3.114;2023-11-19T09:43:35;24.33;;;6.03;;
18720;SDS011;9489;50.948;3.114;2023-11-19T09:46:04;25.63;;;6.32;;
18720;SDS011;9489;50.948;3.114;2023-11-19T09:48:35;29.30;;;7.18;;
18720;SDS011;9489;50.948;3.114;2023-11-19T09:51:08;28.27;;;6.72;;
18720;SDS011;9489;50.948;3.114;2023-11-19T09:53:35;30.25;;;7.63;;
18720;SDS011;9489;50.948;3.114;2023-11-19T09:56:02;31.10;;;7.03;;
18720;SDS011;9489;50.948;3.114;2023-11-19T09:58:29;28.77;;;7.32;;
18720;SDS011;9489;50.948;3.114;2023-11-19T10:00:56;30.80;;;9.48;;
18720;SDS011;9489;50.948;3.114;2023-11-19T10:03:24;36.25;;;9.32;;
18720;SDS011;9489;50.948;3.114;2023-11-19T10:05:52;31.05;;;9.57;;
18720;SDS011;9489;50.948;3.114;2023-11-19T10:08:19;31.30;;;8.98;;
18720;SDS011;9489;50.948;3.114;2023-11-19T10:10:45;34.45;;;10.40;;
18720;SDS011;9489;50.948;3.114;2023-11-19T10:13:12;33.90;;;10.10;;
18720;SDS011;9489;50.948;3.114;2023-11-19T10:15:39;25.90;;;10.30;;
18720;SDS011;9489;50.948;3.114;2023-11-19T10:18:05;36.40;;;10.15;;
18720;SDS011;9489;50.948;3.114;2023-11-19T10:20:35;36.90;;;11.07;;
18720;SDS011;9489;50.948;3.114;2023-11-19T10:23:02;32.38;;;8.52;;
18720;SDS011;9489;50.948;3.114;2023-11-19T10:25:28;32.92;;;8.30;;
18720;SDS011;9489;50.948;3.114;2023-11-19T10:27:55;30.23;;;8.35;;
18720;SDS011;9489;50.948;3.114;2023-11-19T10:30:22;26.80;;;7.85;;
18720;SDS011;9489;50.948;3.114;2023-11-19T10:35:37;29.13;;;7.78;;
18720;SDS011;9489;50.948;3.114;2023-11-19T10:38:16;23.20;;;6.88;;
18720;SDS011;9489;50.948;3.114;2023-11-19T10:40:42;26.35;;;7.07;;
18720;SDS011;9489;50.948;3.114;2023-11-19T10:43:08;27.85;;;6.35;;
18720;SDS011;9489;50.948;3.114;2023-11-19T10:45:34;30.50;;;7.18;;
18720;SDS011;9489;50.948;3.114;2023-11-19T10:48:04;31.48;;;6.97;;
18720;SDS011;9489;50.948;3.114;2023-11-19T10:50:36;28.55;;;6.40;;
18720;SDS011;9489;50.948;3.114;2023-11-19T10:53:03;27.85;;;7.20;;
18720;SDS011;9489;50.948;3.114;2023-11-19T10:55:33;25.85;;;6.70;;
18720;SDS011;9489;50.948;3.114;2023-11-19T10:58:06;30.67;;;8.73;;
18720;SDS011;9489;50.948;3.114;2023-11-19T11:00:54;29.45;;;8.20;;
18720;SDS011;9489;50.948;3.114;2023-11-19T11:03:25;30.95;;;8.27;;
18720;SDS011;9489;50.948;3.114;2023-11-19T11:05:54;31.50;;;8.23;;
18720;SDS011;9489;50.948;3.114;2023-11-19T11:08:21;32.55;;;7.93;;
18720;SDS011;9489;50.948;3.114;2023-11-19T11:13:19;33.55;;;7.88;;
18720;SDS011;9489;50.948;3.114;2023-11-19T11:15:48;29.55;;;7.80;;
18720;SDS011;9489;50.948;3.114;2023-11-19T11:18:14;31.00;;;8.52;;
18720;SDS011;9489;50.948;3.114;2023-11-19T11:20:40;29.73;;;6.95;;
18720;SDS011;9489;50.948;3.114;2023-11-19T11:29:04;29.80;;;6.85;;
18720;SDS011;9489;50.948;3.114;2023-11-19T11:31:37;27.30;;;6.32;;
18720;SDS011;9489;50.948;3.114;2023-11-19T11:39:33;28.70;;;7.05;;
18720;SDS011;9489;50.948;3.114;2023-11-19T11:45:02;23.45;;;7.07;;
18720;SDS011;9489;50.948;3.114;2023-11-19T11:50:11;21.20;;;6.72;;
18720;SDS011;9489;50.948;3.114;2023-11-19T11:55:37;23.52;;;5.43;;
18720;SDS011;9489;50.948;3.114;2023-11-19T11:58:20;23.35;;;5.95;;
18720;SDS011;9489;50.948;3.114;2023-11-19T12:00:56;25.23;;;6.05;;
18720;SDS011;9489;50.948;3.114;2023-11-19T12:03:23;21.58;;;5.80;;
18720;SDS011;9489;50.948;3.114;2023-11-19T12:05:48;25.48;;;6.57;;
18720;SDS011;9489;50.948;3.114;2023-11-19T12:08:15;20.00;;;5.45;;
18720;SDS011;9489;50.948;3.114;2023-11-19T12:10:49;22.55;;;6.18;;
18720;SDS011;9489;50.948;3.114;2023-11-19T12:13:16;21.38;;;5.75;;
18720;SDS011;9489;50.948;3.114;2023-11-19T12:18:31;20.13;;;4.95;;
18720;SDS011;9489;50.948;3.114;2023-11-19T12:20:58;24.08;;;5.65;;
18720;SDS011;9489;50.948;3.114;2023-11-19T12:23:30;22.23;;;6.65;;
18720;SDS011;9489;50.948;3.114;2023-11-19T12:25:56;25.48;;;5.25;;
18720;SDS011;9489;50.948;3.114;2023-11-19T12:28:23;22.65;;;5.30;;
18720;SDS011;9489;50.948;3.114;2023-11-19T12:30:52;24.90;;;5.82;;
18720;SDS011;9489;50.948;3.114;2023-11-19T12:33:18;22.58;;;5.72;;
18720;SDS011;9489;50.948;3.114;2023-11-19T12:35:45;21.77;;;6.70;;
18720;SDS011;9489;50.948;3.114;2023-11-19T12:38:19;20.17;;;5.28;;
18720;SDS011;9489;50.948;3.114;2023-11-19T12:43:30;21.02;;;6.53;;
18720;SDS011;9489;50.948;3.114;2023-11-19T12:45:56;25.35;;;7.40;;
18720;SDS011;9489;50.948;3.114;2023-11-19T12:48:21;22.15;;;6.90;;
18720;SDS011;9489;50.948;3.114;2023-11-19T12:50:57;23.40;;;6.50;;
18720;SDS011;9489;50.948;3.114;2023-11-19T12:53:24;24.33;;;6.60;;
18720;SDS011;9489;50.948;3.114;2023-11-19T12:55:52;29.13;;;6.93;;
18720;SDS011;9489;50.948;3.114;2023-11-19T12:58:34;30.50;;;6.80;;
18720;SDS011;9489;50.948;3.114;2023-11-19T13:01:04;26.45;;;5.97;;
18720;SDS011;9489;50.948;3.114;2023-11-19T13:03:31;25.67;;;7.03;;
18720;SDS011;9489;50.948;3.114;2023-11-19T13:11:13;22.17;;;5.85;;
18720;SDS011;9489;50.948;3.114;2023-11-19T13:13:58;27.50;;;6.82;;
18720;SDS011;9489;50.948;3.114;2023-11-19T13:16:33;30.23;;;6.97;;
18720;SDS011;9489;50.948;3.114;2023-11-19T13:19:02;26.60;;;6.57;;
18720;SDS011;9489;50.948;3.114;2023-11-19T13:21:28;23.83;;;6.80;;
18720;SDS011;9489;50.948;3.114;2023-11-19T13:23:54;28.70;;;7.15;;
18720;SDS011;9489;50.948;3.114;2023-11-19T13:26:20;27.35;;;7.40;;
18720;SDS011;9489;50.948;3.114;2023-11-19T13:28:46;22.80;;;5.90;;
18720;SDS011;9489;50.948;3.114;2023-11-19T13:31:12;24.90;;;6.35;;
18720;SDS011;9489;50.948;3.114;2023-11-19T13:33:39;27.25;;;6.43;;
18720;SDS011;9489;50.948;3.114;2023-11-19T13:36:04;24.30;;;6.32;;
18720;SDS011;9489;50.948;3.114;2023-11-19T13:38:32;26.65;;;6.68;;
18720;SDS011;9489;50.948;3.114;2023-11-19T13:41:02;34.10;;;13.57;;
18720;SDS011;9489;50.948;3.114;2023-11-19T13:43:28;27.00;;;5.47;;
18720;SDS011;9489;50.948;3.114;2023-11-19T13:45:54;22.35;;;6.07;;
18720;SDS011;9489;50.948;3.114;2023-11-19T13:48:20;23.55;;;5.30;;
18720;SDS011;9489;50.948;3.114;2023-11-19T13:50:46;21.23;;;4.78;;
18720;SDS011;9489;50.948;3.114;2023-11-19T13:53:12;20.10;;;5.28;;
18720;SDS011;9489;50.948;3.114;2023-11-19T13:55:37;21.98;;;5.25;;
18720;SDS011;9489;50.948;3.114;2023-11-19T13:58:03;28.75;;;6.38;;
18720;SDS011;9489;50.948;3.114;2023-11-19T14:00:28;26.27;;;5.93;;
18720;SDS011;9489;50.948;3.114;2023-11-19T14:02:54;25.08;;;8.00;;
18720;SDS011;9489;50.948;3.114;2023-11-19T14:05:20;27.42;;;7.78;;
18720;SDS011;9489;50.948;3.114;2023-11-19T14:07:45;25.75;;;7.28;;
18720;SDS011;9489;50.948;3.114;2023-11-19T14:10:16;27.92;;;5.68;;
18720;SDS011;9489;50.948;3.114;2023-11-19T14:12:42;21.15;;;6.15;;
18720;SDS011;9489;50.948;3.114;2023-11-19T14:15:09;28.02;;;6.45;;
18720;SDS011;9489;50.948;3.114;2023-11-19T14:17:35;25.63;;;6.07;;
18720;SDS011;9489;50.948;3.114;2023-11-19T14:20:01;22.42;;;6.38;;
18720;SDS011;9489;50.948;3.114;2023-11-19T14:22:30;26.45;;;5.97;;
18720;SDS011;9489;50.948;3.114;2023-11-19T14:24:55;21.88;;;6.60;;
18720;SDS011;9489;50.948;3.114;2023-11-19T14:27:21;25.25;;;5.78;;
18720;SDS011;9489;50.948;3.114;2023-11-19T14:29:47;28.20;;;5.65;;
18720;SDS011;9489;50.948;3.114;2023-11-19T14:32:13;21.17;;;5.50;;
18720;SDS011;9489;50.948;3.114;2023-11-19T14:34:38;19.98;;;5.65;;
18720;SDS011;9489;50.948;3.114;2023-11-19T14:37:04;26.88;;;6.15;;
18720;SDS011;9489;50.948;3.114;2023-11-19T14:39:30;22.67;;;5.15;;
18720;SDS011;9489;50.948;3.114;2023-11-19T14:41:58;23.38;;;5.20;;
18720;SDS011;9489;50.948;3.114;2023-11-19T14:44:26;27.95;;;7.03;;
18720;SDS011;9489;50.948;3.114;2023-11-19T14:46:54;23.92;;;5.85;;
18720;SDS011;9489;50.948;3.114;2023-11-19T14:49:19;22.42;;;5.78;;
18720;SDS011;9489;50.948;3.114;2023-11-19T14:51:45;23.08;;;6.30;;
18720;SDS011;9489;50.948;3.114;2023-11-19T14:54:10;23.45;;;5.43;;
18720;SDS011;9489;50.948;3.114;2023-11-19T14:56:36;26.38;;;6.03;;
18720;SDS011;9489;50.948;3.114;2023-11-19T14:59:03;27.27;;;5.43;;
18720;SDS011;9489;50.948;3.114;2023-11-19T15:01:29;22.33;;;5.30;;
18720;SDS011;9489;50.948;3.114;2023-11-19T15:03:55;25.85;;;5.25;;
18720;SDS011;9489;50.948;3.114;2023-11-19T15:06:24;23.92;;;5.75;;
18720;SDS011;9489;50.948;3.114;2023-11-19T15:08:53;26.33;;;5.80;;
18720;SDS011;9489;50.948;3.114;2023-11-19T15:11:20;24.90;;;6.13;;
18720;SDS011;9489;50.948;3.114;2023-11-19T15:13:46;22.00;;;5.60;;
18720;SDS011;9489;50.948;3.114;2023-11-19T15:16:12;22.05;;;4.53;;
18720;SDS011;9489;50.948;3.114;2023-11-19T15:18:39;20.77;;;4.93;;
18720;SDS011;9489;50.948;3.114;2023-11-19T15:21:06;18.05;;;4.75;;
18720;SDS011;9489;50.948;3.114;2023-11-19T15:23:33;21.25;;;5.13;;
18720;SDS011;9489;50.948;3.114;2023-11-19T15:25:58;16.02;;;4.93;;